Time;durP1;ratioP1;P1;durP2;ratioP2;P2;SDS_P1;SDS_P2;PMS_P1;PMS_P2;Temp;Humidity;BMP_temperature;BMP_pressure;BME280_temperature;BME280_humidity;BME280_pressure;Samples;Min_cycle;Max_cycle;Signal;HPM_P1;HPM_P2
2022/05/05 00:00:51;;;;;;;3.00;1.60;;;23.50;44.80;;;;;;4985844;28;20487;-44
2022/05/05 00:03:16;;;;;;;4.60;2.20;;;23.50;44.80;;;;;;4986405;28;20034;-44
2022/05/05 00:05:42;;;;;;;3.25;1.77;;;23.50;44.70;;;;;;4987062;28;20038;-44
2022/05/05 00:08:09;;;;;;;2.88;1.55;;;23.50;44.70;;;;;;4986503;28;20058;-44
2022/05/05 00:16:05;;;;;;;2.75;1.42;;;23.50;44.70;;;;;;4985692;28;20096;-44
2022/05/05 00:18:31;;;;;;;2.88;1.70;;;23.50;44.80;;;;;;4985904;28;20447;-44
2022/05/05 00:20:57;;;;;;;2.60;1.70;;;23.50;44.90;;;;;;4985928;28;20026;-45
2022/05/05 00:23:22;;;;;;;1.92;1.20;;;23.50;45.00;;;;;;4985392;28;20076;-44
2022/05/05 00:25:48;;;;;;;3.17;1.52;;;23.40;44.90;;;;;;4985913;28;20082;-44
2022/05/05 00:28:13;;;;;;;2.85;1.65;;;23.50;44.90;;;;;;4979262;28;20505;-45
2022/05/05 00:30:39;;;;;;;2.85;1.63;;;23.40;44.70;;;;;;4966459;28;20030;-44
2022/05/05 00:33:05;;;;;;;3.63;1.90;;;23.50;45.50;;;;;;4984315;28;20037;-45
2022/05/05 00:35:30;;;;;;;3.10;1.77;;;23.40;44.60;;;;;;4985889;28;20481;-44
2022/05/05 00:37:57;;;;;;;3.10;1.70;;;23.50;44.70;;;;;;4985917;28;20498;-45
2022/05/05 00:40:22;;;;;;;3.20;1.80;;;23.50;44.60;;;;;;4985480;28;20042;-45
2022/05/05 00:42:48;;;;;;;2.92;1.50;;;23.40;44.50;;;;;;4985437;28;20085;-44
2022/05/05 00:45:14;;;;;;;3.83;1.90;;;23.50;44.50;;;;;;4985656;28;20034;-44
2022/05/05 00:47:40;;;;;;;3.08;1.60;;;23.40;44.50;;;;;;4985195;28;20367;-45
2022/05/05 00:50:06;;;;;;;3.58;1.95;;;23.40;44.50;;;;;;4985932;28;20042;-44
2022/05/05 00:52:32;;;;;;;2.80;1.70;;;23.40;44.40;;;;;;4985700;28;20038;-44
2022/05/05 00:55:00;;;;;;;3.60;1.90;;;23.40;44.40;;;;;;4985457;28;20030;-45
2022/05/05 00:57:26;;;;;;;2.65;1.80;;;23.40;44.40;;;;;;4985565;28;20096;-44
2022/05/05 00:59:53;;;;;;;3.95;1.85;;;23.40;44.40;;;;;;4984102;28;20031;-44
2022/05/05 01:02:19;;;;;;;3.15;1.63;;;23.40;44.50;;;;;;4984997;28;20022;-45
2022/05/05 01:04:46;;;;;;;2.40;1.48;;;23.40;44.50;;;;;;4985585;28;20416;-44
2022/05/05 01:07:14;;;;;;;3.00;1.58;;;23.40;44.60;;;;;;4985467;28;20125;-45
2022/05/05 01:09:40;;;;;;;2.13;1.27;;;23.40;44.60;;;;;;4982204;28;20443;-45
2022/05/05 01:12:07;;;;;;;3.67;1.65;;;23.40;44.60;;;;;;4985272;28;20098;-44
2022/05/05 01:14:34;;;;;;;2.92;1.65;;;23.40;44.50;;;;;;4985332;28;20042;-44
2022/05/05 01:17:00;;;;;;;2.80;1.70;;;23.40;44.40;;;;;;4976014;28;20026;-44
2022/05/05 01:19:26;;;;;;;2.63;1.50;;;23.40;44.40;;;;;;4978348;28;20105;-44
2022/05/05 01:21:57;;;;;;;3.05;1.80;;;23.40;44.40;;;;;;4980646;28;20030;-44
2022/05/05 01:28:10;;;;;;;3.03;1.80;;;23.40;44.30;;;;;;4985443;28;20046;-44
2022/05/05 01:29:54;;;;;;;3.38;1.92;;;23.40;44.30;;;;;;4985326;28;20037;-43
2022/05/05 01:32:20;;;;;;;3.17;1.60;;;23.40;44.30;;;;;;4984609;28;20117;-45
2022/05/05 01:34:47;;;;;;;2.80;1.60;;;23.40;44.30;;;;;;4985216;28;20457;-44
2022/05/05 01:37:13;;;;;;;3.35;1.75;;;23.40;44.20;;;;;;4985966;28;20037;-45
2022/05/05 01:39:39;;;;;;;2.42;1.50;;;23.40;44.30;;;;;;4984825;28;20035;-45
2022/05/05 01:42:05;;;;;;;2.30;1.40;;;23.40;44.30;;;;;;4984560;28;20073;-43
2022/05/05 01:44:30;;;;;;;2.45;1.45;;;23.40;44.30;;;;;;4985096;28;20030;-45
2022/05/05 01:46:56;;;;;;;2.67;1.52;;;23.30;44.40;;;;;;4984275;28;20088;-44
2022/05/05 01:49:22;;;;;;;3.03;1.40;;;23.30;44.40;;;;;;4984372;28;20042;-44
2022/05/05 01:51:48;;;;;;;2.20;1.30;;;23.40;44.40;;;;;;4985829;28;20026;-44
2022/05/05 01:54:14;;;;;;;3.30;1.67;;;23.40;44.50;;;;;;4989237;28;20102;-44
2022/05/05 01:56:39;;;;;;;2.55;1.55;;;23.40;44.50;;;;;;4988985;28;20034;-44
2022/05/05 01:59:06;;;;;;;2.85;1.40;;;23.30;44.40;;;;;;4988540;28;20039;-44
2022/05/05 02:01:33;;;;;;;3.15;1.83;;;23.40;44.30;;;;;;4988208;28;20043;-44
2022/05/05 02:04:00;;;;;;;3.20;1.70;;;23.30;44.30;;;;;;4988701;28;20026;-44
2022/05/05 02:06:26;;;;;;;3.00;1.52;;;23.30;44.20;;;;;;4986561;28;20478;-44
2022/05/05 02:08:52;;;;;;;3.00;1.70;;;23.30;44.20;;;;;;4969555;28;20039;-44
2022/05/05 02:11:18;;;;;;;3.30;1.70;;;23.30;44.20;;;;;;4968742;28;20105;-45
2022/05/05 02:13:44;;;;;;;3.42;1.80;;;23.30;44.20;;;;;;4968812;28;20418;-43
2022/05/05 02:16:10;;;;;;;2.38;1.58;;;23.30;44.20;;;;;;4969218;28;20447;-44
2022/05/05 02:18:36;;;;;;;3.00;1.65;;;23.30;44.20;;;;;;4988596;28;20036;-45
2022/05/05 02:21:01;;;;;;;3.38;1.83;;;23.30;44.20;;;;;;4988461;28;20674;-44
2022/05/05 02:23:27;;;;;;;3.25;1.70;;;23.30;44.10;;;;;;4984353;28;20038;-45
2022/05/05 02:25:53;;;;;;;2.70;1.60;;;23.30;44.20;;;;;;4988690;28;20063;-44
2022/05/05 02:28:18;;;;;;;2.92;1.80;;;23.30;44.20;;;;;;4995696;28;20121;-45
2022/05/05 02:30:45;;;;;;;3.05;1.88;;;23.30;44.20;;;;;;5008005;28;20422;-45
2022/05/05 02:33:11;;;;;;;2.58;1.50;;;23.30;44.20;;;;;;4991421;28;20108;-44
2022/05/05 02:35:36;;;;;;;2.67;1.50;;;23.30;44.20;;;;;;4988215;28;20570;-45
2022/05/05 02:40:47;;;;;;;2.80;1.75;;;23.30;44.30;;;;;;4988318;28;20038;-44
2022/05/05 02:43:13;;;;;;;2.50;1.50;;;23.30;44.20;;;;;;4988202;28;20406;-45
2022/05/05 02:45:38;;;;;;;2.72;1.90;;;23.30;44.20;;;;;;4988165;28;20030;-44
2022/05/05 02:48:04;;;;;;;3.20;1.90;;;23.30;44.10;;;;;;4987707;28;20113;-45
2022/05/05 02:50:31;;;;;;;2.78;1.65;;;23.30;44.10;;;;;;4987588;28;20027;-44
2022/05/05 02:52:56;;;;;;;2.38;1.45;;;23.30;44.10;;;;;;4987780;28;20101;-45
2022/05/05 02:55:23;;;;;;;3.42;1.70;;;23.30;44.10;;;;;;4987948;28;20176;-45
2022/05/05 02:57:49;;;;;;;2.80;1.80;;;23.20;43.90;;;;;;4968207;28;20034;-44
2022/05/05 03:00:15;;;;;;;3.00;1.63;;;23.30;44.10;;;;;;4967938;28;20031;-45
2022/05/05 03:02:43;;;;;;;2.47;1.42;;;23.30;44.10;;;;;;4979325;28;20030;-44
2022/05/05 03:05:10;;;;;;;2.55;1.50;;;23.30;44.00;;;;;;4987199;28;20519;-44
2022/05/05 03:07:36;;;;;;;2.22;1.40;;;23.20;44.00;;;;;;4987418;28;20398;-45
2022/05/05 03:10:03;;;;;;;2.42;1.55;;;23.30;44.10;;;;;;4987281;28;20096;-44
2022/05/05 03:12:29;;;;;;;2.97;1.67;;;23.30;44.10;;;;;;4987144;28;20031;-45
2022/05/05 03:14:55;;;;;;;2.65;1.67;;;23.20;43.90;;;;;;4986897;28;20026;-45
2022/05/05 03:17:21;;;;;;;3.08;1.73;;;23.30;44.00;;;;;;4987030;28;20034;-44
2022/05/05 03:19:46;;;;;;;2.63;1.50;;;23.30;44.00;;;;;;4986728;28;20030;-46
2022/05/05 03:22:12;;;;;;;3.05;1.70;;;23.30;44.00;;;;;;4987463;28;20042;-44
2022/05/05 03:24:38;;;;;;;2.95;1.63;;;23.30;44.00;;;;;;4987217;28;20072;-44
2022/05/05 03:27:04;;;;;;;2.67;1.70;;;23.20;43.90;;;;;;4987344;28;20085;-44
2022/05/05 03:29:31;;;;;;;3.80;1.60;;;23.20;43.90;;;;;;4969389;28;20031;-44
2022/05/05 03:31:56;;;;;;;3.08;1.77;;;23.20;43.90;;;;;;4971695;28;20506;-44
2022/05/05 03:34:22;;;;;;;3.17;1.77;;;23.20;43.90;;;;;;4987434;28;20027;-44
2022/05/05 03:36:48;;;;;;;2.67;1.52;;;23.20;43.90;;;;;;4986777;28;20065;-45
2022/05/05 03:39:13;;;;;;;2.60;1.58;;;23.20;43.80;;;;;;4986905;28;20023;-44
2022/05/05 03:41:39;;;;;;;2.53;1.42;;;23.20;43.80;;;;;;4986681;28;20495;-44
2022/05/05 03:44:07;;;;;;;2.72;1.50;;;23.20;43.80;;;;;;4986989;28;20030;-44
2022/05/05 03:46:34;;;;;;;2.85;1.65;;;23.20;43.80;;;;;;4986362;28;20030;-44
2022/05/05 03:48:59;;;;;;;2.72;1.60;;;23.20;43.80;;;;;;4986131;28;20034;-45
2022/05/05 03:51:25;;;;;;;2.40;1.45;;;23.20;43.70;;;;;;4986216;28;20034;-44
2022/05/05 03:53:54;;;;;;;2.72;1.35;;;23.20;43.80;;;;;;4985045;28;20085;-44
2022/05/05 03:56:20;;;;;;;3.13;1.48;;;23.20;43.80;;;;;;4986647;28;20065;-44
2022/05/05 03:58:45;;;;;;;2.50;1.52;;;23.20;43.80;;;;;;4986601;28;20049;-45
2022/05/05 04:01:11;;;;;;;3.72;1.80;;;23.20;43.70;;;;;;4979117;28;20403;-44
2022/05/05 04:03:43;;;;;;;2.72;1.63;;;23.20;43.70;;;;;;4983907;28;20034;-45
2022/05/05 04:06:10;;;;;;;4.03;1.90;;;23.20;43.70;;;;;;4985467;28;20058;-44
2022/05/05 04:08:37;;;;;;;2.80;1.63;;;23.20;43.80;;;;;;4985726;28;20023;-44
2022/05/05 04:11:05;;;;;;;2.40;1.48;;;23.20;43.80;;;;;;4985288;28;20045;-44
2022/05/05 04:13:30;;;;;;;3.28;1.70;;;23.20;43.70;;;;;;4983767;28;20023;-45
2022/05/05 04:15:56;;;;;;;13.18;4.18;;;23.20;43.70;;;;;;4983932;28;20581;-45
2022/05/05 04:18:22;;;;;;;15.93;5.65;;;23.20;43.80;;;;;;4984206;28;20034;-44
2022/05/05 04:20:48;;;;;;;23.35;8.63;;;23.20;43.90;;;;;;4983708;28;20025;-44
2022/05/05 04:23:13;;;;;;;18.50;7.97;;;23.20;44.20;;;;;;4984790;28;20049;-44
2022/05/05 04:25:44;;;;;;;20.17;7.57;;;23.20;44.20;;;;;;4984710;28;20022;-45
2022/05/05 04:28:11;;;;;;;19.45;7.43;;;23.20;44.30;;;;;;4990944;28;20092;-45
2022/05/05 04:30:38;;;;;;;21.60;8.25;;;23.20;44.30;;;;;;4983230;28;20026;-44
2022/05/05 04:33:04;;;;;;;20.08;8.38;;;23.20;44.40;;;;;;4981034;28;20328;-44
2022/05/05 04:35:30;;;;;;;15.82;6.90;;;23.20;44.30;;;;;;4983309;28;20260;-44
2022/05/05 04:37:57;;;;;;;14.63;6.15;;;23.20;44.50;;;;;;4982623;28;20026;-44
2022/05/05 04:40:23;;;;;;;15.40;6.13;;;23.20;44.60;;;;;;4985284;28;20058;-44
2022/05/05 04:42:49;;;;;;;15.98;5.60;;;23.20;44.60;;;;;;4983133;28;20053;-44
2022/05/05 04:45:15;;;;;;;13.75;5.57;;;23.20;45.40;;;;;;4983311;28;20033;-44
2022/05/05 04:47:41;;;;;;;14.20;5.63;;;23.30;45.80;;;;;;4975799;28;20030;-44
2022/05/05 04:50:07;;;;;;;12.38;5.78;;;23.30;45.80;;;;;;4985214;28;20231;-44
2022/05/05 04:52:33;;;;;;;13.57;5.20;;;23.30;45.70;;;;;;4985382;28;20033;-43
2022/05/05 04:54:59;;;;;;;12.48;5.13;;;23.30;45.90;;;;;;4985341;28;20026;-43
2022/05/05 04:57:25;;;;;;;11.52;4.55;;;23.40;45.80;;;;;;4983905;28;20398;-44
2022/05/05 04:59:51;;;;;;;8.77;3.90;;;23.40;45.80;;;;;;4972930;28;20026;-43
2022/05/05 05:02:17;;;;;;;9.32;4.70;;;23.40;45.90;;;;;;4971593;28;20030;-44
2022/05/05 05:04:42;;;;;;;10.38;4.15;;;23.40;45.90;;;;;;4985220;28;20311;-44
2022/05/05 05:07:08;;;;;;;10.30;4.47;;;23.50;46.00;;;;;;4984755;28;20034;-44
2022/05/05 05:09:36;;;;;;;8.43;4.13;;;23.40;45.70;;;;;;4984924;28;20168;-43
2022/05/05 05:12:02;;;;;;;7.90;3.92;;;23.50;45.30;;;;;;4984384;28;20038;-43
2022/05/05 05:14:28;;;;;;;9.90;4.47;;;23.50;45.40;;;;;;4984457;28;20108;-43
2022/05/05 05:16:54;;;;;;;6.70;3.05;;;23.50;45.80;;;;;;4984562;28;20168;-43
2022/05/05 05:19:20;;;;;;;7.13;3.45;;;23.50;45.70;;;;;;4985096;28;20022;-44
2022/05/05 05:21:46;;;;;;;7.18;3.10;;;23.50;45.70;;;;;;4984582;28;20175;-44
2022/05/05 05:24:13;;;;;;;7.35;3.40;;;23.50;45.50;;;;;;4984743;28;20042;-43
2022/05/05 05:26:40;;;;;;;6.80;3.10;;;23.60;45.40;;;;;;4985901;28;20034;-43
2022/05/05 05:29:05;;;;;;;6.80;3.55;;;23.60;45.30;;;;;;4988395;28;20033;-44
2022/05/05 05:31:31;;;;;;;5.88;3.25;;;23.60;45.30;;;;;;4988075;28;20026;-43
2022/05/05 05:33:57;;;;;;;7.13;3.17;;;23.60;45.40;;;;;;4987758;28;20454;-43
2022/05/05 05:36:23;;;;;;;5.57;2.78;;;23.60;45.10;;;;;;4987999;28;20033;-43
2022/05/05 05:38:49;;;;;;;9.00;3.17;;;23.60;45.00;;;;;;4987991;28;20026;-43
2022/05/05 05:41:15;;;;;;;5.85;2.45;;;23.70;45.20;;;;;;4988149;28;20534;-44
2022/05/05 05:43:40;;;;;;;5.30;2.90;;;23.70;45.10;;;;;;4988040;28;20065;-44
2022/05/05 05:46:06;;;;;;;7.15;2.88;;;23.70;45.00;;;;;;4988170;28;20359;-43
2022/05/05 05:48:32;;;;;;;4.15;2.33;;;23.70;44.80;;;;;;4987580;28;20038;-43
2022/05/05 05:50:58;;;;;;;4.68;2.22;;;23.70;44.60;;;;;;4985957;28;20396;-44
2022/05/05 05:53:23;;;;;;;5.03;2.65;;;23.70;44.40;;;;;;4987316;28;20030;-44
2022/05/05 05:55:49;;;;;;;4.35;2.08;;;23.70;44.20;;;;;;4985571;28;20101;-43
2022/05/05 05:58:15;;;;;;;6.05;2.80;;;23.70;44.10;;;;;;4987896;28;20023;-43
2022/05/05 06:00:40;;;;;;;4.10;2.40;;;23.70;44.10;;;;;;4987407;28;20092;-43
2022/05/05 06:05:51;;;;;;;4.40;2.30;;;23.70;43.90;;;;;;4988095;28;20067;-44
2022/05/05 06:08:17;;;;;;;3.83;1.85;;;23.70;43.80;;;;;;4988271;28;20034;-43
2022/05/05 06:10:43;;;;;;;5.88;2.70;;;23.70;43.80;;;;;;4988064;28;20034;-44
2022/05/05 06:13:09;;;;;;;4.68;1.83;;;23.70;43.70;;;;;;4988240;28;20393;-45
2022/05/05 06:15:35;;;;;;;3.97;2.00;;;23.70;43.60;;;;;;4988154;28;20027;-45
2022/05/05 06:18:00;;;;;;;4.18;1.88;;;23.70;43.50;;;;;;4987938;28;20041;-45
2022/05/05 06:20:26;;;;;;;4.32;2.20;;;23.70;43.50;;;;;;4987092;28;20540;-44
2022/05/05 06:22:52;;;;;;;3.95;2.00;;;23.70;43.40;;;;;;4988198;28;20049;-45
2022/05/05 06:25:20;;;;;;;4.78;2.20;;;23.70;43.40;;;;;;4988173;28;20030;-45
2022/05/05 06:27:47;;;;;;;4.57;2.40;;;23.70;43.40;;;;;;4987808;28;20042;-44
2022/05/05 06:30:13;;;;;;;3.20;1.63;;;23.70;43.30;;;;;;4987861;28;20100;-45
2022/05/05 06:32:43;;;;;;;4.15;1.95;;;23.70;43.30;;;;;;4988142;28;20324;-43
2022/05/05 06:35:09;;;;;;;3.70;1.58;;;23.70;43.30;;;;;;4988319;28;20058;-44
2022/05/05 06:37:35;;;;;;;4.03;1.85;;;23.60;43.20;;;;;;4986776;28;20057;-44
2022/05/05 06:40:02;;;;;;;3.80;1.90;;;23.70;43.30;;;;;;4986558;28;20171;-44
2022/05/05 06:42:28;;;;;;;4.30;2.28;;;23.60;43.10;;;;;;4986852;28;20109;-44
2022/05/05 06:44:54;;;;;;;4.28;2.10;;;23.60;43.20;;;;;;4987356;28;20038;-43
2022/05/05 06:47:20;;;;;;;4.75;2.13;;;23.60;43.20;;;;;;4986368;28;20080;-44
2022/05/05 06:49:46;;;;;;;4.55;2.38;;;23.60;43.10;;;;;;4986740;28;20034;-44
2022/05/05 06:52:11;;;;;;;3.90;1.73;;;23.60;43.10;;;;;;4986009;28;20038;-44
2022/05/05 06:54:37;;;;;;;4.20;1.85;;;23.60;43.10;;;;;;4987402;28;20037;-43
2022/05/05 06:57:03;;;;;;;3.20;1.63;;;23.60;43.10;;;;;;4976012;28;20031;-45
2022/05/05 06:59:30;;;;;;;4.32;1.95;;;23.60;43.00;;;;;;4986127;28;20068;-45
2022/05/05 07:02:01;;;;;;;4.88;1.50;;;23.60;43.10;;;;;;4981880;28;20095;-45
2022/05/05 07:07:17;;;;;;;3.17;1.70;;;23.60;43.10;;;;;;4987331;28;20053;-43
2022/05/05 07:12:30;;;;;;;3.17;1.83;;;23.60;43.10;;;;;;4986605;28;20032;-45
2022/05/05 07:14:57;;;;;;;4.20;1.60;;;23.60;43.10;;;;;;4986706;28;20053;-45
2022/05/05 07:17:24;;;;;;;3.80;1.77;;;23.60;43.00;;;;;;4986955;28;20243;-44
2022/05/05 07:19:50;;;;;;;4.15;1.63;;;23.60;43.10;;;;;;4986810;28;20090;-45
2022/05/05 07:22:16;;;;;;;3.97;1.70;;;23.60;43.10;;;;;;4986439;28;20066;-44
2022/05/05 07:24:42;;;;;;;3.28;1.90;;;23.60;43.00;;;;;;4987043;28;20062;-44
2022/05/05 07:27:08;;;;;;;2.88;1.38;;;23.60;43.00;;;;;;4985558;28;20445;-44
2022/05/05 07:29:33;;;;;;;2.80;1.55;;;23.60;43.00;;;;;;4987121;28;20027;-44
2022/05/05 07:31:59;;;;;;;4.05;1.67;;;23.60;43.00;;;;;;4985784;28;20045;-44
2022/05/05 07:34:26;;;;;;;2.88;1.35;;;23.60;43.00;;;;;;4986511;28;20476;-44
2022/05/05 07:36:52;;;;;;;3.00;1.60;;;23.60;43.00;;;;;;4986756;28;20058;-44
2022/05/05 07:39:18;;;;;;;3.38;1.70;;;23.60;43.00;;;;;;4986886;28;20026;-44
2022/05/05 07:41:44;;;;;;;3.25;1.65;;;23.60;43.00;;;;;;4986437;28;20042;-44
2022/05/05 07:44:10;;;;;;;4.03;1.52;;;23.60;42.90;;;;;;4986841;28;20498;-44
2022/05/05 07:46:36;;;;;;;2.75;1.50;;;23.60;43.00;;;;;;4971669;28;20498;-44
2022/05/05 07:49:04;;;;;;;4.45;1.50;;;23.60;42.90;;;;;;4984553;28;20286;-44
2022/05/05 07:51:31;;;;;;;3.45;1.58;;;23.60;42.80;;;;;;4997655;28;20037;-44
2022/05/05 07:56:43;;;;;;;2.28;1.42;;;23.60;42.90;;;;;;4986041;28;20670;-44
2022/05/05 07:59:09;;;;;;;3.03;1.58;;;23.60;42.90;;;;;;4986280;28;20019;-45
2022/05/05 08:01:35;;;;;;;3.00;1.33;;;23.60;42.90;;;;;;4986095;28;20230;-44
2022/05/05 08:04:01;;;;;;;3.25;1.70;;;23.60;43.60;;;;;;4985886;28;20102;-45
2022/05/05 08:06:26;;;;;;;2.92;1.50;;;23.60;42.90;;;;;;4986180;28;20034;-44
2022/05/05 08:08:52;;;;;;;3.00;1.35;;;23.60;42.90;;;;;;4986236;28;20478;-44
2022/05/05 08:11:18;;;;;;;2.38;1.20;;;23.60;42.90;;;;;;4985845;28;20038;-43
2022/05/05 08:13:44;;;;;;;3.35;1.50;;;23.60;42.80;;;;;;4986201;28;20034;-43
2022/05/05 08:16:10;;;;;;;2.70;1.35;;;23.60;42.80;;;;;;4984900;28;20105;-43
2022/05/05 08:18:38;;;;;;;2.63;1.20;;;23.60;42.80;;;;;;4986131;28;20089;-44
2022/05/05 08:21:05;;;;;;;2.60;1.30;;;23.60;42.80;;;;;;4984327;28;20053;-43
2022/05/05 08:23:31;;;;;;;3.15;1.40;;;23.60;42.80;;;;;;4985422;28;20457;-44
2022/05/05 08:28:58;;;;;;;2.75;1.30;;;23.60;42.80;;;;;;4963298;28;20038;-44
2022/05/05 08:31:24;;;;;;;3.28;1.25;;;23.60;42.80;;;;;;4980703;28;20049;-44
2022/05/05 08:33:50;;;;;;;2.58;1.30;;;23.60;42.80;;;;;;4985011;28;20050;-44
2022/05/05 08:36:15;;;;;;;2.88;1.33;;;23.60;42.80;;;;;;4968433;28;20029;-45
2022/05/05 08:38:42;;;;;;;3.17;1.65;;;23.60;42.80;;;;;;4966632;28;20027;-45
2022/05/05 08:41:12;;;;;;;2.67;1.38;;;23.60;42.80;;;;;;4965801;28;20636;-44
2022/05/05 08:43:37;;;;;;;2.97;1.33;;;23.60;42.80;;;;;;4966434;28;20015;-44
2022/05/05 08:46:03;;;;;;;2.40;1.23;;;23.60;42.80;;;;;;4966398;28;20506;-44
2022/05/05 08:48:34;;;;;;;3.08;1.35;;;23.60;42.80;;;;;;4978112;28;20026;-44
2022/05/05 08:51:00;;;;;;;3.08;1.27;;;23.60;42.80;;;;;;4993985;28;20048;-44
2022/05/05 08:53:35;;;;;;;2.65;1.17;;;23.60;42.80;;;;;;5005382;28;20133;-45
2022/05/05 08:56:01;;;;;;;2.25;1.08;;;23.60;42.80;;;;;;5005012;28;20528;-45
2022/05/05 08:58:28;;;;;;;2.80;1.50;;;23.60;42.80;;;;;;5005141;28;20048;-45
2022/05/05 09:00:53;;;;;;;2.05;1.05;;;23.60;42.80;;;;;;5004031;28;20084;-44
2022/05/05 09:03:20;;;;;;;2.85;1.17;;;23.60;42.80;;;;;;4993342;28;20030;-44
2022/05/05 09:05:51;;;;;;;2.75;1.23;;;23.60;42.80;;;;;;4985088;28;20034;-45
2022/05/05 09:08:27;;;;;;;2.33;1.05;;;23.60;42.70;;;;;;4984677;28;20030;-45
2022/05/05 09:10:54;;;;;;;1.77;1.05;;;23.60;42.70;;;;;;4984041;28;20535;-44
2022/05/05 09:13:46;;;;;;;2.33;1.20;;;23.60;42.70;;;;;;4984769;28;20045;-45
2022/05/05 09:16:24;;;;;;;1.98;1.00;;;23.60;42.80;;;;;;4983957;28;20030;-45
2022/05/05 09:18:49;;;;;;;2.50;1.17;;;23.60;42.70;;;;;;4984748;28;20082;-45
2022/05/05 09:21:15;;;;;;;1.70;0.82;;;23.60;42.70;;;;;;4984865;28;20611;-44
2022/05/05 09:26:28;;;;;;;2.35;1.27;;;23.60;42.70;;;;;;4965841;28;20167;-44
2022/05/05 09:28:55;;;;;;;2.50;1.15;;;23.60;42.70;;;;;;4965387;28;20035;-44
2022/05/05 09:31:24;;;;;;;1.83;0.93;;;23.60;42.70;;;;;;4965058;28;20026;-45
2022/05/05 09:33:50;;;;;;;1.98;0.98;;;23.60;42.70;;;;;;4978967;28;20548;-45
2022/05/05 09:36:24;;;;;;;1.90;1.10;;;23.60;42.70;;;;;;4984676;28;20035;-45
2022/05/05 09:39:04;;;;;;;2.58;1.17;;;23.60;42.80;;;;;;4984895;28;20026;-45
2022/05/05 09:41:42;;;;;;;2.13;1.13;;;23.60;42.70;;;;;;4984354;28;20040;-45
2022/05/05 09:44:16;;;;;;;1.90;1.02;;;23.60;42.80;;;;;;4984769;28;20039;-45
2022/05/05 09:46:45;;;;;;;2.22;1.20;;;23.60;42.80;;;;;;4985068;28;20057;-46
2022/05/05 09:49:15;;;;;;;1.70;1.00;;;23.60;42.80;;;;;;4984481;28;20123;-45
2022/05/05 09:57:41;;;;;;;2.00;1.00;;;23.60;42.60;;;;;;4984170;28;20022;-45
2022/05/05 10:05:46;;;;;;;1.88;1.00;;;23.60;42.60;;;;;;4984665;28;20113;-44
2022/05/05 10:08:15;;;;;;;1.88;1.10;;;23.60;42.60;;;;;;4984715;28;20105;-44
2022/05/05 10:10:43;;;;;;;2.83;0.93;;;23.60;42.60;;;;;;4984643;28;20113;-45
2022/05/05 10:13:12;;;;;;;2.00;1.00;;;23.60;42.60;;;;;;4986045;28;20538;-45
2022/05/05 10:15:38;;;;;;;1.95;1.20;;;23.60;42.60;;;;;;4969215;28;20023;-45
2022/05/05 10:18:04;;;;;;;1.83;1.00;;;23.60;42.70;;;;;;4976746;28;20109;-45
2022/05/05 10:20:35;;;;;;;2.05;0.93;;;23.60;42.70;;;;;;4988172;28;20034;-44
2022/05/05 10:23:38;;;;;;;3.78;1.15;;;23.60;42.70;;;;;;4987366;28;20402;-45
2022/05/05 10:26:05;;;;;;;;;;;23.60;42.70;;;;;;4966274;28;20031;-45
2022/05/05 10:28:42;;;;;;;1.50;0.90;;;23.60;42.70;;;;;;4984180;28;19909;-45
2022/05/05 10:31:31;;;;;;;2.08;1.10;;;23.60;42.80;;;;;;4987604;28;20499;-44
2022/05/05 10:34:06;;;;;;;2.47;0.90;;;23.60;42.80;;;;;;4984199;28;20038;-45
2022/05/05 10:36:34;;;;;;;1.83;0.90;;;23.60;42.80;;;;;;4987594;28;20032;-45
2022/05/05 10:39:16;;;;;;;2.25;1.13;;;23.60;42.80;;;;;;4987683;28;20065;-44
2022/05/05 10:41:41;;;;;;;2.17;0.93;;;23.60;42.70;;;;;;4987356;28;20085;-45
2022/05/05 10:44:16;;;;;;;1.48;0.80;;;23.60;42.70;;;;;;4987060;28;20034;-45
2022/05/05 10:47:02;;;;;;;3.63;1.17;;;23.60;42.70;;;;;;4987835;28;20502;-45
2022/05/05 10:49:33;;;;;;;2.03;0.98;;;23.60;42.70;;;;;;4987057;28;20109;-44
2022/05/05 10:52:10;;;;;;;1.98;1.10;;;23.70;42.80;;;;;;4968333;28;20050;-44
2022/05/05 10:54:37;;;;;;;1.55;0.85;;;23.70;42.80;;;;;;4968067;28;20027;-45
2022/05/05 10:57:24;;;;;;;1.70;0.90;;;23.70;42.70;;;;;;4968374;28;20638;-44
2022/05/05 11:00:12;;;;;;;2.05;1.00;;;23.70;42.80;;;;;;4987516;28;20168;-45
2022/05/05 11:02:41;;;;;;;2.00;1.00;;;23.70;42.80;;;;;;4987038;28;20045;-45
2022/05/05 11:05:35;;;;;;;1.58;0.82;;;23.70;42.70;;;;;;4987321;28;20519;-44
2022/05/05 11:08:26;;;;;;;1.77;0.98;;;23.60;42.70;;;;;;4985451;28;20047;-45
2022/05/05 11:13:38;;;;;;;2.40;1.10;;;23.70;42.80;;;;;;4987319;28;20471;-44
2022/05/05 11:22:18;;;;;;;2.50;0.90;;;23.60;42.70;;;;;;4986957;28;20099;-44
2022/05/05 11:24:46;;;;;;;1.42;0.82;;;23.70;42.80;;;;;;4986677;28;20041;-45
2022/05/05 11:27:16;;;;;;;1.73;0.95;;;23.70;42.80;;;;;;4987341;28;20076;-45
2022/05/05 11:29:50;;;;;;;2.58;0.80;;;23.70;42.70;;;;;;4987098;28;20038;-45
2022/05/05 11:32:17;;;;;;;1.85;0.90;;;23.70;42.70;;;;;;4986521;28;20034;-44
2022/05/05 11:34:45;;;;;;;1.38;0.90;;;23.70;42.70;;;;;;4986530;28;20035;-46
2022/05/05 11:37:11;;;;;;;1.55;0.85;;;23.70;42.70;;;;;;4986531;28;20517;-45
2022/05/05 11:39:38;;;;;;;2.88;1.10;;;23.70;42.70;;;;;;4986864;28;20026;-45
2022/05/05 11:42:09;;;;;;;1.35;0.70;;;23.70;42.70;;;;;;4971171;28;20112;-44
2022/05/05 11:44:40;;;;;;;1.52;0.70;;;23.70;42.70;;;;;;4967008;28;20030;-45
2022/05/05 11:47:13;;;;;;;2.28;1.00;;;23.70;42.70;;;;;;4985667;28;20034;-44
2022/05/05 11:49:43;;;;;;;1.63;0.80;;;23.70;42.60;;;;;;4986533;28;20065;-45
2022/05/05 11:52:14;;;;;;;1.85;0.80;;;23.70;42.60;;;;;;4985473;28;20053;-45
2022/05/05 11:54:39;;;;;;;1.55;0.90;;;23.70;42.70;;;;;;4986748;28;20031;-45
2022/05/05 11:57:05;;;;;;;1.55;0.70;;;23.70;42.70;;;;;;4986256;28;20599;-45
2022/05/05 12:02:18;;;;;;;2.13;1.00;;;23.70;42.60;;;;;;4985399;28;20069;-45
2022/05/05 12:04:46;;;;;;;2.33;0.90;;;23.70;42.70;;;;;;4986264;28;20578;-45
2022/05/05 12:07:20;;;;;;;1.85;0.80;;;23.70;42.70;;;;;;4986603;28;20037;-46
2022/05/05 12:09:56;;;;;;;2.13;0.85;;;23.70;42.60;;;;;;4986703;28;20034;-45
2022/05/05 12:12:24;;;;;;;1.92;0.77;;;23.70;42.60;;;;;;4985827;28;20457;-44
2022/05/05 12:14:57;;;;;;;1.25;0.60;;;23.70;42.60;;;;;;4986319;28;21072;-44
2022/05/05 12:17:27;;;;;;;2.45;0.98;;;23.70;42.60;;;;;;4985972;28;20035;-44
2022/05/05 12:19:56;;;;;;;1.42;0.70;;;23.70;42.60;;;;;;4985981;28;20030;-45
2022/05/05 12:22:27;;;;;;;1.35;0.80;;;23.80;42.60;;;;;;4985557;28;20030;-45
2022/05/05 12:24:53;;;;;;;2.05;0.73;;;23.70;42.50;;;;;;4985327;28;20080;-45
2022/05/05 12:27:25;;;;;;;1.00;0.63;;;23.70;42.60;;;;;;4985646;28;20073;-44
2022/05/05 12:29:51;;;;;;;1.17;0.80;;;23.80;42.60;;;;;;4986105;28;20109;-44
2022/05/05 12:32:18;;;;;;;1.98;1.08;;;23.80;42.60;;;;;;4969430;28;20041;-45
2022/05/05 12:34:45;;;;;;;1.33;0.73;;;23.80;42.50;;;;;;4984980;28;20033;-44
2022/05/05 12:37:11;;;;;;;1.27;0.70;;;23.80;42.50;;;;;;4984769;28;20670;-45
2022/05/05 12:39:51;;;;;;;1.83;0.80;;;23.80;42.40;;;;;;4984286;28;20030;-45
2022/05/05 12:42:16;;;;;;;2.00;0.80;;;23.80;42.40;;;;;;4985365;28;20419;-45
2022/05/05 12:44:45;;;;;;;1.80;0.80;;;23.80;42.30;;;;;;4985638;28;20037;-45
2022/05/05 12:47:11;;;;;;;1.48;0.80;;;23.80;42.50;;;;;;4985821;28;20038;-45
2022/05/05 12:49:44;;;;;;;2.17;0.98;;;23.80;42.50;;;;;;4985952;28;20041;-45
2022/05/05 12:59:36;;;;;;;1.40;0.60;;;23.90;42.70;;;;;;5003889;28;20064;-45
2022/05/05 13:00:24;;;;;;;1.27;0.80;;;23.90;42.60;;;;;;4985095;28;20018;-45
2022/05/05 13:02:49;;;;;;;1.38;0.75;;;23.90;42.60;;;;;;4984815;28;20194;-44
2022/05/05 13:05:16;;;;;;;0.80;0.50;;;23.90;42.60;;;;;;4985029;28;20037;-45
2022/05/05 13:07:42;;;;;;;1.40;0.77;;;23.90;42.60;;;;;;4985040;28;20030;-44
2022/05/05 13:10:08;;;;;;;0.82;0.50;;;23.90;42.50;;;;;;4984896;28;20442;-45
2022/05/05 13:12:34;;;;;;;1.25;0.60;;;24.00;42.50;;;;;;4984523;28;20037;-45
2022/05/05 13:15:00;;;;;;;0.98;0.50;;;23.90;42.40;;;;;;4984956;28;20035;-44
2022/05/05 13:17:25;;;;;;;2.15;0.80;;;24.00;42.50;;;;;;4985345;28;20386;-45
2022/05/05 13:19:51;;;;;;;2.05;0.80;;;24.00;42.50;;;;;;4984569;28;20026;-45
2022/05/05 13:22:17;;;;;;;1.40;0.80;;;24.00;42.50;;;;;;4965264;28;20388;-44
2022/05/05 13:24:43;;;;;;;1.48;0.70;;;24.00;42.50;;;;;;4964976;28;20031;-45
2022/05/05 13:27:08;;;;;;;1.20;0.68;;;24.10;42.60;;;;;;4965432;28;20034;-44
2022/05/05 13:29:34;;;;;;;1.08;0.65;;;24.10;42.50;;;;;;4965569;28;20128;-44
2022/05/05 13:31:59;;;;;;;2.00;0.90;;;24.10;42.50;;;;;;4964910;28;20031;-45
2022/05/05 13:34:25;;;;;;;1.42;0.77;;;24.10;42.40;;;;;;4980185;28;20068;-44
2022/05/05 13:36:51;;;;;;;1.70;0.73;;;24.10;42.40;;;;;;4984933;28;20027;-44
2022/05/05 13:39:17;;;;;;;1.17;0.60;;;24.10;42.30;;;;;;4984874;28;20029;-45
2022/05/05 13:41:43;;;;;;;1.73;0.73;;;24.10;42.20;;;;;;4985226;28;20831;-45
2022/05/05 13:44:09;;;;;;;1.50;0.75;;;24.20;42.20;;;;;;4985484;28;20038;-43